createdAt,value
2022-11-06T00:00:37.014Z,9.9
2022-11-06T00:01:45.378Z,9.9
2022-11-06T00:02:53.740Z,9.9
2022-11-06T00:04:02.249Z,10.3
2022-11-06T00:05:10.573Z,10.3
2022-11-06T00:06:18.965Z,10.3
2022-11-06T00:07:27.517Z,10.8
2022-11-06T00:08:35.858Z,10.8
2022-11-06T00:09:44.212Z,10.8
2022-11-06T00:10:52.756Z,10.2
2022-11-06T00:12:01.096Z,10.2
2022-11-06T00:13:09.461Z,10.2
2022-11-06T00:14:18.024Z,10.1
2022-11-06T00:15:26.356Z,10.1
2022-11-06T00:16:34.724Z,10.1
2022-11-06T00:17:43.251Z,11.1
2022-11-06T00:18:51.625Z,11.1
2022-11-06T00:19:59.948Z,11.1
2022-11-06T00:21:08.509Z,10.5
2022-11-06T00:22:16.869Z,10.5
2022-11-06T00:23:25.198Z,10.5
2022-11-06T00:24:33.787Z,9.8
2022-11-06T00:25:42.132Z,9.8
2022-11-06T00:26:54.325Z,9.8
2022-11-06T00:27:59.017Z,10.1
2022-11-06T00:29:07.349Z,10.1
2022-11-06T00:30:15.699Z,10.1
2022-11-06T00:31:24.223Z,10.1
2022-11-06T00:32:32.578Z,10.1
2022-11-06T00:33:40.913Z,10.1
2022-11-06T00:34:49.488Z,10
2022-11-06T00:35:57.835Z,10
2022-11-06T00:37:06.171Z,10
2022-11-06T00:38:15.021Z,9.6
2022-11-06T00:39:23.076Z,9.6
2022-11-06T00:40:31.392Z,9.6
2022-11-06T00:41:39.967Z,9.7
2022-11-06T00:42:48.303Z,9.7
2022-11-06T00:43:56.642Z,9.7
2022-11-06T00:45:05.210Z,10.2
2022-11-06T00:46:13.540Z,10.2
2022-11-06T00:47:21.903Z,10.2
2022-11-06T00:48:30.469Z,10.3
2022-11-06T00:49:38.780Z,10.3
2022-11-06T00:50:47.146Z,10.3
2022-11-06T00:51:55.676Z,10.1
2022-11-06T00:53:04.027Z,10.1
2022-11-06T00:54:12.395Z,10.1
2022-11-06T00:55:20.939Z,10.9
2022-11-06T00:56:29.276Z,10.9
2022-11-06T00:57:37.613Z,10.9
2022-11-06T00:58:46.173Z,10.6
2022-11-06T00:59:54.520Z,10.6
2022-11-06T01:01:02.860Z,10.6
2022-11-06T01:02:11.592Z,11.2
2022-11-06T01:03:19.756Z,11.2
2022-11-06T01:04:28.086Z,11.2
2022-11-06T01:05:36.654Z,10.9
2022-11-06T01:06:45.026Z,10.9
2022-11-06T01:07:53.344Z,10.9
2022-11-06T01:09:01.906Z,11.5
2022-11-06T01:10:10.226Z,11.5
2022-11-06T01:11:18.599Z,11.5
2022-11-06T01:12:27.167Z,11.2
2022-11-06T01:13:35.481Z,11.2
2022-11-06T01:14:43.836Z,11.2
2022-11-06T01:15:52.381Z,11.6
2022-11-06T01:17:00.739Z,11.6
2022-11-06T01:18:09.110Z,11.6
2022-11-06T01:19:17.636Z,11.7
2022-11-06T01:20:25.980Z,11.7
2022-11-06T01:21:34.335Z,11.7
2022-11-06T01:22:42.914Z,11.7
2022-11-06T01:23:51.218Z,11.7
2022-11-06T01:24:59.651Z,11.7
2022-11-06T01:26:08.128Z,12.5
2022-11-06T01:27:31.858Z,12.5
2022-11-06T01:28:24.794Z,12.5
2022-11-06T01:29:33.346Z,12.1
2022-11-06T01:30:41.690Z,12.1
2022-11-06T01:31:50.036Z,12.1
2022-11-06T01:32:58.589Z,12.2
2022-11-06T01:34:06.919Z,12.2
2022-11-06T01:35:15.284Z,12.2
2022-11-06T01:36:23.854Z,12
2022-11-06T01:37:32.180Z,12
2022-11-06T01:38:40.551Z,12
2022-11-06T01:39:49.067Z,11.9
2022-11-06T01:40:57.455Z,11.9
2022-11-06T01:42:05.799Z,11.9
2022-11-06T01:43:14.328Z,12.5
2022-11-06T01:44:22.681Z,12.5
2022-11-06T01:45:31.033Z,12.5
2022-11-06T01:46:39.576Z,12.1
2022-11-06T01:47:47.910Z,12.1
2022-11-06T01:48:56.256Z,12.1
2022-11-06T01:50:04.819Z,11.8
2022-11-06T01:51:13.167Z,11.8
2022-11-06T01:52:21.509Z,11.8
2022-11-06T01:53:30.059Z,11.2
2022-11-06T01:54:38.543Z,11.2
2022-11-06T01:55:46.762Z,11.2
2022-11-06T01:56:55.307Z,10.6
2022-11-06T01:58:03.645Z,10.6
2022-11-06T01:59:11.994Z,10.6
2022-11-06T02:00:20.544Z,11.5
2022-11-06T02:01:29.091Z,11.5
2022-11-06T02:02:37.539Z,11.5
2022-11-06T02:03:45.800Z,11.9
2022-11-06T02:04:54.132Z,11.9
2022-11-06T02:06:02.491Z,11.9
2022-11-06T02:07:11.054Z,12.5
2022-11-06T02:08:19.392Z,12.5
2022-11-06T02:09:27.742Z,12.5
2022-11-06T02:10:36.314Z,12.6
2022-11-06T02:11:44.630Z,12.6
2022-11-06T02:12:52.999Z,12.6
2022-11-06T02:14:01.525Z,11.7
2022-11-06T02:15:09.888Z,11.7
2022-11-06T02:16:18.239Z,11.7
2022-11-06T02:17:26.770Z,11.3
2022-11-06T02:18:35.121Z,11.3
2022-11-06T02:19:43.473Z,11.3
2022-11-06T02:20:52.024Z,10
2022-11-06T02:22:00.392Z,10
2022-11-06T02:23:08.750Z,10
2022-11-06T02:24:17.280Z,10.3
2022-11-06T02:25:25.641Z,10.3
2022-11-06T02:26:34.106Z,10.3
2022-11-06T02:27:42.536Z,10
2022-11-06T02:28:50.877Z,10
2022-11-06T02:29:59.236Z,10
2022-11-06T02:31:07.795Z,9.8
2022-11-06T02:32:16.139Z,9.8
2022-11-06T02:33:24.485Z,9.8
2022-11-06T02:34:33.021Z,9.1
2022-11-06T02:35:41.374Z,9.1
2022-11-06T02:36:49.704Z,9.1
2022-11-06T02:37:58.269Z,9.3
2022-11-06T02:39:06.601Z,9.3
2022-11-06T02:40:14.960Z,9.3
2022-11-06T02:41:23.517Z,9.5
2022-11-06T02:42:31.969Z,9.5
2022-11-06T02:43:40.188Z,9.5
2022-11-06T02:44:48.752Z,9.4
2022-11-06T02:45:57.094Z,9.4
2022-11-06T02:47:05.433Z,9.4
2022-11-06T02:48:14.412Z,9.8
2022-11-06T02:49:22.298Z,9.8
2022-11-06T02:50:30.659Z,9.8
2022-11-06T02:51:39.213Z,9.4
2022-11-06T02:52:47.550Z,9.4
2022-11-06T02:53:55.888Z,9.4
2022-11-06T02:55:04.466Z,9.2
2022-11-06T02:56:12.769Z,9.2
2022-11-06T02:57:21.129Z,9.2
2022-11-06T02:58:29.701Z,8.4
2022-11-06T02:59:38.023Z,8.4
2022-11-06T03:00:46.385Z,8.4
2022-11-06T03:01:55.029Z,9.2
2022-11-06T03:03:03.299Z,9.2
2022-11-06T03:04:11.573Z,9.2
2022-11-06T03:05:20.131Z,9.1
2022-11-06T03:06:28.469Z,9.1
2022-11-06T03:07:36.804Z,9.1
2022-11-06T03:08:45.350Z,9.2
2022-11-06T03:09:53.720Z,9.2
2022-11-06T03:11:02.042Z,9.2
2022-11-06T03:12:10.584Z,9.2
2022-11-06T03:13:18.935Z,9.2
2022-11-06T03:14:27.284Z,9.2
2022-11-06T03:15:35.822Z,9.7
2022-11-06T03:16:44.161Z,9.7
2022-11-06T03:17:52.504Z,9.7
2022-11-06T03:19:01.057Z,8.8
2022-11-06T03:20:09.399Z,8.8
2022-11-06T03:21:17.740Z,8.8
2022-11-06T03:22:26.280Z,9.5
2022-11-06T03:23:34.608Z,9.5
2022-11-06T03:24:42.953Z,9.5
2022-11-06T03:25:51.519Z,9.5
2022-11-06T03:26:59.865Z,9.5
2022-11-06T03:28:08.199Z,9.5
2022-11-06T03:29:16.749Z,9.5
2022-11-06T03:30:25.122Z,9.5
2022-11-06T03:31:33.458Z,9.5
2022-11-06T03:32:42.013Z,9.6
2022-11-06T03:33:50.386Z,9.6
2022-11-06T03:34:58.738Z,9.6
2022-11-06T03:36:07.303Z,9.7
2022-11-06T03:37:15.651Z,9.7
2022-11-06T03:38:23.999Z,9.7
2022-11-06T03:39:32.527Z,9.1
2022-11-06T03:40:40.872Z,9.1
2022-11-06T03:41:49.211Z,9.1
2022-11-06T03:42:57.748Z,9.3
2022-11-06T03:44:06.084Z,9.3
2022-11-06T03:45:14.429Z,9.3
2022-11-06T03:46:23.073Z,9.8
2022-11-06T03:47:31.308Z,9.8
2022-11-06T03:48:39.661Z,9.8
2022-11-06T03:49:48.202Z,9.9
2022-11-06T03:50:56.551Z,9.9
2022-11-06T03:52:04.872Z,9.9
2022-11-06T03:53:13.422Z,10
2022-11-06T03:54:21.763Z,10
2022-11-06T03:55:30.108Z,10
2022-11-06T03:56:38.657Z,10.1
2022-11-06T03:57:47.014Z,10.1
2022-11-06T03:58:55.394Z,10.1
2022-11-06T04:00:03.910Z,11
2022-11-06T04:01:12.244Z,11
2022-11-06T04:02:20.725Z,11
2022-11-06T04:03:29.156Z,10.3
2022-11-06T04:04:37.497Z,10.3
2022-11-06T04:05:45.846Z,10.3
2022-11-06T04:06:54.375Z,10.9
2022-11-06T04:08:02.712Z,10.9
2022-11-06T04:09:11.052Z,10.9
2022-11-06T04:10:19.624Z,11.6
2022-11-06T04:11:27.949Z,11.6
2022-11-06T04:12:36.291Z,11.6
2022-11-06T04:13:44.849Z,10.7
2022-11-06T04:14:53.182Z,10.7
2022-11-06T04:16:01.537Z,10.7
2022-11-06T04:17:10.104Z,11.6
2022-11-06T04:18:18.445Z,11.6
2022-11-06T04:19:26.766Z,11.6
2022-11-06T04:20:35.321Z,10.8
2022-11-06T04:21:43.641Z,10.8
2022-11-06T04:22:51.987Z,10.8
2022-11-06T04:24:00.543Z,10.6
2022-11-06T04:25:08.881Z,10.6
2022-11-06T04:26:17.222Z,10.6
2022-11-06T04:27:25.781Z,10.6
2022-11-06T04:28:34.101Z,10.6
2022-11-06T04:29:42.460Z,10.6
2022-11-06T04:30:51.010Z,10.9
2022-11-06T04:31:59.337Z,10.9
2022-11-06T04:33:07.683Z,10.9
2022-11-06T04:34:16.301Z,10.9
2022-11-06T04:35:24.594Z,10.9
2022-11-06T04:36:32.936Z,10.9
2022-11-06T04:37:41.473Z,10.8
2022-11-06T04:38:49.824Z,10.8
2022-11-06T04:39:58.158Z,10.8
2022-11-06T04:41:06.710Z,10.4
2022-11-06T04:42:15.044Z,10.4
2022-11-06T04:43:23.391Z,10.4
2022-11-06T04:44:31.935Z,10.5
2022-11-06T04:45:40.272Z,10.5
2022-11-06T04:46:48.609Z,10.5
2022-11-06T04:47:57.146Z,9.6
2022-11-06T04:49:05.509Z,9.6
2022-11-06T04:50:13.884Z,9.6
2022-11-06T04:51:22.403Z,10.3
2022-11-06T04:52:30.738Z,10.3
2022-11-06T04:53:39.100Z,10.3
2022-11-06T04:54:47.650Z,10.2
2022-11-06T04:55:55.990Z,10.2
2022-11-06T04:57:04.326Z,10.2
2022-11-06T04:58:13.109Z,9.8
2022-11-06T04:59:21.216Z,9.8
2022-11-06T05:00:29.707Z,9.8
2022-11-06T05:01:38.176Z,10
2022-11-06T05:02:46.443Z,10
2022-11-06T05:03:54.800Z,10
2022-11-06T05:05:03.363Z,10.6
2022-11-06T05:06:11.723Z,10.6
2022-11-06T05:07:20.038Z,10.6
2022-11-06T05:08:28.588Z,9.9
2022-11-06T05:09:36.932Z,9.9
2022-11-06T05:10:45.267Z,9.9
2022-11-06T05:11:53.833Z,9.4
2022-11-06T05:13:02.142Z,9.4
2022-11-06T05:14:10.505Z,9.4
2022-11-06T05:15:19.075Z,9.8
2022-11-06T05:16:27.378Z,9.8
2022-11-06T05:17:36.717Z,9.8
2022-11-06T05:18:44.291Z,10
2022-11-06T05:19:52.622Z,10
2022-11-06T05:21:00.963Z,10
2022-11-06T05:22:09.586Z,10.3
2022-11-06T05:23:17.856Z,10.3
2022-11-06T05:24:26.212Z,10.3
2022-11-06T05:25:34.750Z,10.4
2022-11-06T05:26:43.088Z,10.4
2022-11-06T05:27:51.451Z,10.4
2022-11-06T05:29:00.018Z,10.7
2022-11-06T05:30:08.337Z,10.7
2022-11-06T05:31:16.692Z,10.7
2022-11-06T05:32:25.236Z,10.4
2022-11-06T05:33:33.614Z,10.4
2022-11-06T05:34:41.942Z,10.4
2022-11-06T05:35:50.499Z,11.2
2022-11-06T05:36:58.823Z,11.2
2022-11-06T05:38:07.270Z,11.2
2022-11-06T05:39:15.709Z,10.6
2022-11-06T05:40:24.058Z,10.6
2022-11-06T05:41:32.397Z,10.6
2022-11-06T05:42:40.947Z,10.6
2022-11-06T05:43:49.284Z,10.6
2022-11-06T05:44:57.632Z,10.6
2022-11-06T05:46:11.553Z,9.8
2022-11-06T05:47:14.516Z,9.8
2022-11-06T05:48:22.883Z,9.8
2022-11-06T05:49:31.427Z,9.9
2022-11-06T05:50:39.766Z,9.9
2022-11-06T05:51:48.094Z,9.9
2022-11-06T05:52:56.643Z,11.7
2022-11-06T05:54:05.034Z,11.7
2022-11-06T05:55:14.980Z,11.7
2022-11-06T05:56:21.887Z,10.3
2022-11-06T05:57:30.217Z,10.3
2022-11-06T05:58:38.554Z,10.3
2022-11-06T05:59:47.103Z,10.6
2022-11-06T06:00:55.524Z,10.6
2022-11-06T06:02:03.974Z,10.6
2022-11-06T06:03:12.465Z,9.4
2022-11-06T06:04:20.732Z,9.4
2022-11-06T06:05:29.087Z,9.4
2022-11-06T06:06:37.625Z,9.9
2022-11-06T06:07:45.988Z,9.9
2022-11-06T06:08:54.337Z,9.9
2022-11-06T06:10:02.897Z,10.1
2022-11-06T06:11:11.237Z,10.1
2022-11-06T06:12:19.615Z,10.1
2022-11-06T06:13:28.174Z,11.1
2022-11-06T06:14:36.550Z,11.1
2022-11-06T06:15:44.911Z,11.1
2022-11-06T06:16:53.471Z,10.4
2022-11-06T06:18:01.879Z,10.4
2022-11-06T06:19:10.232Z,10.4
2022-11-06T06:20:18.800Z,10
2022-11-06T06:21:27.160Z,10
2022-11-06T06:22:35.501Z,10
2022-11-06T06:23:44.070Z,10.1
2022-11-06T06:24:52.463Z,10.1
2022-11-06T06:26:01.045Z,10.1
2022-11-06T06:27:09.686Z,9.2
2022-11-06T06:28:18.041Z,9.2
2022-11-06T06:29:26.402Z,9.2
2022-11-06T06:30:34.980Z,8.8
2022-11-06T06:31:43.440Z,8.8
2022-11-06T06:32:51.794Z,8.8
2022-11-06T06:34:00.361Z,8.2
2022-11-06T06:35:08.727Z,8.2
2022-11-06T06:36:17.428Z,8.2
2022-11-06T06:37:26.113Z,9.1
2022-11-06T06:38:34.508Z,9.1
2022-11-06T06:39:42.857Z,9.1
2022-11-06T06:40:51.441Z,11.2
2022-11-06T06:41:59.786Z,11.2
2022-11-06T06:43:08.138Z,11.2
2022-11-06T06:44:16.748Z,10.1
2022-11-06T06:45:29.075Z,10.1
2022-11-06T06:46:37.854Z,10.1
2022-11-06T06:47:46.417Z,12.7
2022-11-06T06:48:54.805Z,12.7
2022-11-06T06:50:04.677Z,12.7
2022-11-06T06:51:19.748Z,10.7
2022-11-06T06:52:27.441Z,10.7
2022-11-06T06:53:36.862Z,10.7
2022-11-06T06:54:51.682Z,9.5
2022-11-06T06:56:00.019Z,9.5
2022-11-06T06:57:08.387Z,9.5
2022-11-06T06:58:18.130Z,18.6
2022-11-06T06:59:25.306Z,18.6
2022-11-06T07:00:33.721Z,18.6
2022-11-06T07:01:42.562Z,22
2022-11-06T07:02:50.873Z,22
2022-11-06T07:04:03.857Z,22
2022-11-06T07:05:07.789Z,26.6
2022-11-06T07:06:16.135Z,26.6
2022-11-06T07:07:24.484Z,26.6
2022-11-06T07:08:33.055Z,64.800003
2022-11-06T07:09:41.451Z,64.800003
2022-11-06T07:10:50.205Z,64.800003
2022-11-06T07:11:59.568Z,61.599998
2022-11-06T07:13:10.706Z,61.599998
2022-11-06T07:14:21.750Z,61.599998
2022-11-06T07:15:31.756Z,103.3
2022-11-06T07:16:41.528Z,103.3
2022-11-06T07:17:51.866Z,103.3
2022-11-06T07:19:03.080Z,296.20001
2022-11-06T07:20:14.050Z,296.20001
2022-11-06T07:21:24.457Z,296.20001
2022-11-06T07:22:37.184Z,103.8
2022-11-06T07:23:44.800Z,103.8
2022-11-06T07:24:55.450Z,103.8
2022-11-06T07:26:06.889Z,105.5
2022-11-06T07:27:18.011Z,105.5
2022-11-06T07:28:28.221Z,105.5
2022-11-06T07:29:37.320Z,203.69999
2022-11-06T07:30:46.925Z,203.69999
2022-11-06T07:31:57.165Z,203.69999
2022-11-06T07:33:10.916Z,82.5
2022-11-06T07:34:32.548Z,82.5
2022-11-06T07:35:49.104Z,82.5
2022-11-06T07:37:06.608Z,28.5
2022-11-06T07:38:14.440Z,28.5
2022-11-06T07:39:28.726Z,28.5
2022-11-06T07:40:43.877Z,14.9
2022-11-06T07:41:56.167Z,14.9
2022-11-06T07:43:08.018Z,14.9
2022-11-06T07:44:18.370Z,20.700001
2022-11-06T07:45:26.866Z,20.700001
2022-11-06T07:46:35.228Z,20.700001
2022-11-06T07:47:43.809Z,15.8
2022-11-06T07:48:52.181Z,15.8
2022-11-06T07:50:00.539Z,15.8
2022-11-06T07:51:09.107Z,9.2
2022-11-06T07:52:17.451Z,9.2
2022-11-06T07:53:25.866Z,9.2
2022-11-06T07:54:34.418Z,8.8
2022-11-06T07:55:42.777Z,8.8
2022-11-06T07:56:51.134Z,8.8
2022-11-06T07:57:59.693Z,8.5
2022-11-06T07:59:08.048Z,8.5
2022-11-06T08:00:16.519Z,8.5
2022-11-06T08:01:25.061Z,8.5
2022-11-06T08:02:33.339Z,8.5
2022-11-06T08:03:41.649Z,8.5
2022-11-06T08:04:50.208Z,8.6
2022-11-06T08:05:58.553Z,8.6
2022-11-06T08:07:06.902Z,8.6
2022-11-06T08:08:15.730Z,15.5
2022-11-06T08:09:23.870Z,15.5
2022-11-06T08:10:32.373Z,15.5
2022-11-06T08:11:41.043Z,9
2022-11-06T08:12:49.658Z,9
2022-11-06T08:13:58.992Z,9
2022-11-06T08:15:07.656Z,9
2022-11-06T08:16:16.077Z,9
2022-11-06T08:17:24.445Z,9
2022-11-06T08:18:33.054Z,12
2022-11-06T08:19:41.423Z,12
2022-11-06T08:20:49.803Z,12
2022-11-06T08:21:58.361Z,13.8
2022-11-06T08:23:06.835Z,13.8
2022-11-06T08:24:19.111Z,13.8
2022-11-06T08:25:23.758Z,13.4
2022-11-06T08:26:32.120Z,13.4
2022-11-06T08:27:40.471Z,13.4
2022-11-06T08:28:49.213Z,11.5
2022-11-06T08:29:57.567Z,11.5
2022-11-06T08:31:05.947Z,11.5
2022-11-06T08:32:14.752Z,10
2022-11-06T08:33:23.095Z,10
2022-11-06T08:34:31.497Z,10
2022-11-06T08:35:40.089Z,8.9
2022-11-06T08:36:49.739Z,8.9
2022-11-06T08:37:56.854Z,8.9
2022-11-06T08:39:05.444Z,10.4
2022-11-06T08:40:13.830Z,10.4
2022-11-06T08:41:22.224Z,10.4
2022-11-06T08:42:30.806Z,12
2022-11-06T08:43:39.189Z,12
2022-11-06T08:44:47.566Z,12
2022-11-06T08:45:56.153Z,12.1
2022-11-06T08:47:04.517Z,12.1
2022-11-06T08:48:12.918Z,12.1
2022-11-06T08:49:21.457Z,14.2
2022-11-06T08:50:29.808Z,14.2
2022-11-06T08:51:38.175Z,14.2
2022-11-06T08:52:46.762Z,10.3
2022-11-06T08:53:55.176Z,10.3
2022-11-06T08:55:03.504Z,10.3
2022-11-06T08:56:12.248Z,13
2022-11-06T08:57:20.652Z,13
2022-11-06T08:58:29.002Z,13
2022-11-06T08:59:37.581Z,7.8
2022-11-06T09:00:45.975Z,7.8
2022-11-06T09:01:54.439Z,7.8
2022-11-06T09:03:02.923Z,8.8
2022-11-06T09:04:11.345Z,8.8
2022-11-06T09:05:19.677Z,8.8
2022-11-06T09:06:28.268Z,7.8
2022-11-06T09:07:36.623Z,7.8
2022-11-06T09:08:44.971Z,7.8
2022-11-06T09:09:53.516Z,7.9
2022-11-06T09:11:01.874Z,7.9
2022-11-06T09:12:10.238Z,7.9
2022-11-06T09:13:18.831Z,11.4
2022-11-06T09:14:27.160Z,11.4
2022-11-06T09:15:35.509Z,11.4
2022-11-06T09:16:44.066Z,8.4
2022-11-06T09:17:52.417Z,8.4
2022-11-06T09:19:00.779Z,8.4
2022-11-06T09:20:09.335Z,8.9
2022-11-06T09:21:17.664Z,8.9
2022-11-06T09:22:26.044Z,8.9
2022-11-06T09:23:34.683Z,7.8
2022-11-06T09:25:02.368Z,7.8
2022-11-06T09:25:52.239Z,7.8
2022-11-06T09:27:00.816Z,8
2022-11-06T09:28:09.177Z,8
2022-11-06T09:29:17.506Z,8
2022-11-06T09:30:26.072Z,23.9
2022-11-06T09:31:34.443Z,23.9
2022-11-06T09:32:42.794Z,23.9
2022-11-06T09:33:51.355Z,84.400002
2022-11-06T09:34:59.706Z,84.400002
2022-11-06T09:36:08.076Z,84.400002
2022-11-06T09:37:16.676Z,157
2022-11-06T09:38:25.016Z,157
2022-11-06T09:39:33.341Z,157
2022-11-06T09:40:41.871Z,10.5
2022-11-06T09:41:50.209Z,10.5
2022-11-06T09:42:58.575Z,10.5
2022-11-06T09:44:07.119Z,25.6
2022-11-06T09:45:15.496Z,25.6
2022-11-06T09:46:23.813Z,25.6
2022-11-06T09:47:32.469Z,22.200001
2022-11-06T09:48:40.792Z,22.200001
2022-11-06T09:49:49.152Z,22.200001
2022-11-06T09:50:57.692Z,7.7
2022-11-06T09:52:06.060Z,7.7
2022-11-06T09:53:14.761Z,7.7
2022-11-06T09:54:22.928Z,7.4
2022-11-06T09:55:31.307Z,7.4
2022-11-06T09:56:39.621Z,7.4
2022-11-06T09:57:48.209Z,7.2
2022-11-06T09:58:56.584Z,7.2
2022-11-06T10:00:04.923Z,7.2
2022-11-06T10:01:17.582Z,7.3
2022-11-06T10:02:21.930Z,7.3
2022-11-06T10:03:30.146Z,7.3
2022-11-06T10:04:38.707Z,5.8
2022-11-06T10:05:47.067Z,5.8
2022-11-06T10:06:55.411Z,5.8
2022-11-06T10:08:03.960Z,7.2
2022-11-06T10:09:12.293Z,7.2
2022-11-06T10:10:20.644Z,7.2
2022-11-06T10:11:29.250Z,6.6
2022-11-06T10:12:37.576Z,6.6
2022-11-06T10:13:55.104Z,6.6
2022-11-06T10:15:05.258Z,10.5
2022-11-06T10:16:13.788Z,10.5
2022-11-06T10:17:22.177Z,10.5
2022-11-06T10:18:30.821Z,9.1
2022-11-06T10:19:39.161Z,9.1
2022-11-06T10:21:15.707Z,9.1
2022-11-06T10:22:24.837Z,6.6
2022-11-06T10:23:33.141Z,6.6
2022-11-06T10:24:41.535Z,6.6
2022-11-06T10:25:50.183Z,9.4
2022-11-06T10:26:58.598Z,9.4
2022-11-06T10:28:07.060Z,9.4
2022-11-06T10:29:15.725Z,9.3
2022-11-06T10:30:24.130Z,9.3
2022-11-06T10:31:32.576Z,9.3
2022-11-06T10:32:41.161Z,8.2
2022-11-06T10:33:49.503Z,8.2
2022-11-06T10:34:57.848Z,8.2
2022-11-06T10:36:06.400Z,6.2
2022-11-06T10:37:14.741Z,6.2
2022-11-06T10:38:23.221Z,6.2
2022-11-06T10:39:33.616Z,7.4
2022-11-06T10:40:44.444Z,7.4
2022-11-06T10:41:53.448Z,7.4
2022-11-06T10:43:02.215Z,6.8
2022-11-06T10:44:10.728Z,6.8
2022-11-06T10:45:19.232Z,6.8
2022-11-06T10:46:27.860Z,5.9
2022-11-06T10:47:36.330Z,5.9
2022-11-06T10:48:44.764Z,5.9
2022-11-06T10:49:54.968Z,5.9
2022-11-06T10:51:03.335Z,5.9
2022-11-06T10:52:11.733Z,5.9
2022-11-06T10:53:22.350Z,6.8
2022-11-06T10:54:33.700Z,6.8
2022-11-06T10:55:42.129Z,6.8
2022-11-06T10:56:50.745Z,6.4
2022-11-06T10:57:59.664Z,6.4
2022-11-06T10:59:08.324Z,6.4
2022-11-06T11:00:17.060Z,6.1
2022-11-06T11:01:25.747Z,6.1
2022-11-06T11:02:34.372Z,6.1
2022-11-06T11:03:43.159Z,6.2
2022-11-06T11:04:56.854Z,6.2
2022-11-06T11:06:00.434Z,6.2
2022-11-06T11:07:09.017Z,6.6
2022-11-06T11:08:17.500Z,6.6
2022-11-06T11:09:25.933Z,6.6
2022-11-06T11:10:34.560Z,6.1
2022-11-06T11:11:43.006Z,6.1
2022-11-06T11:12:51.397Z,6.1
2022-11-06T11:13:59.965Z,5.8
2022-11-06T11:15:08.328Z,5.8
2022-11-06T11:16:16.701Z,5.8
2022-11-06T11:17:25.274Z,6
2022-11-06T11:18:33.671Z,6
2022-11-06T11:19:42.048Z,6
2022-11-06T11:20:50.642Z,5.9
2022-11-06T11:21:59.110Z,5.9
2022-11-06T11:23:07.567Z,5.9
2022-11-06T11:24:16.004Z,6.1
2022-11-06T11:25:24.364Z,6.1
2022-11-06T11:26:32.680Z,6.1
2022-11-06T11:27:41.318Z,5.8
2022-11-06T11:28:49.663Z,5.8
2022-11-06T11:29:58.137Z,5.8
2022-11-06T11:31:06.679Z,5.3
2022-11-06T11:32:15.034Z,5.3
2022-11-06T11:33:23.482Z,5.3
2022-11-06T11:34:32.025Z,6.2
2022-11-06T11:35:40.365Z,6.2
2022-11-06T11:36:48.747Z,6.2
2022-11-06T11:37:57.278Z,6
2022-11-06T11:39:05.638Z,6
2022-11-06T11:40:13.983Z,6
2022-11-06T11:41:22.549Z,5.6
2022-11-06T11:42:30.907Z,5.6
2022-11-06T11:43:39.288Z,5.6
2022-11-06T11:44:48.022Z,5.5
2022-11-06T11:45:57.956Z,5.5
2022-11-06T11:47:09.038Z,5.5
2022-11-06T11:48:15.119Z,4.5
2022-11-06T11:49:23.181Z,4.5
2022-11-06T11:50:31.518Z,4.5
2022-11-06T11:51:40.059Z,5.1
2022-11-06T11:52:48.388Z,5.1
2022-11-06T11:53:56.725Z,5.1
2022-11-06T11:55:05.287Z,6
2022-11-06T11:56:13.637Z,6
2022-11-06T11:57:21.982Z,6
2022-11-06T11:58:30.538Z,5.6
2022-11-06T11:59:38.900Z,5.6
2022-11-06T12:00:47.210Z,5.6
2022-11-06T12:01:55.890Z,6.1
2022-11-06T12:03:04.294Z,6.1
2022-11-06T12:04:12.482Z,6.1
2022-11-06T12:05:21.065Z,5.6
2022-11-06T12:06:29.383Z,5.6
2022-11-06T12:07:40.864Z,5.6
2022-11-06T12:08:46.296Z,5.1
2022-11-06T12:09:54.647Z,5.1
2022-11-06T12:11:02.995Z,5.1
2022-11-06T12:12:11.549Z,6.9
2022-11-06T12:13:19.878Z,6.9
2022-11-06T12:14:28.238Z,6.9
2022-11-06T12:15:36.808Z,8.9
2022-11-06T12:16:45.122Z,8.9
2022-11-06T12:17:53.459Z,8.9
2022-11-06T12:19:02.041Z,6.2
2022-11-06T12:20:10.426Z,6.2
2022-11-06T12:21:18.852Z,6.2
2022-11-06T12:22:27.316Z,5.6
2022-11-06T12:23:35.715Z,5.6
2022-11-06T12:24:44.052Z,5.6
2022-11-06T12:25:52.624Z,4.7
2022-11-06T12:27:00.970Z,4.7
2022-11-06T12:28:09.365Z,4.7
2022-11-06T12:29:18.003Z,5.2
2022-11-06T12:30:26.376Z,5.2
2022-11-06T12:31:34.972Z,5.2
2022-11-06T12:32:43.302Z,4.8
2022-11-06T12:34:07.944Z,4.8
2022-11-06T12:35:00.049Z,4.8
2022-11-06T12:36:08.635Z,4.9
2022-11-06T12:37:16.988Z,4.9
2022-11-06T12:38:25.357Z,4.9
2022-11-06T12:39:33.899Z,5.1
2022-11-06T12:40:42.248Z,5.1
2022-11-06T12:41:50.598Z,5.1
2022-11-06T12:42:59.162Z,4.6
2022-11-06T12:44:07.505Z,4.6
2022-11-06T12:45:15.837Z,4.6
2022-11-06T12:46:24.441Z,4.1
2022-11-06T12:47:32.816Z,4.1
2022-11-06T12:48:41.144Z,4.1
2022-11-06T12:49:49.696Z,4.7
2022-11-06T12:50:58.116Z,4.7
2022-11-06T12:52:06.419Z,4.7
2022-11-06T12:53:14.999Z,4.2
2022-11-06T12:54:23.340Z,4.2
2022-11-06T12:55:31.771Z,4.2
2022-11-06T12:56:40.276Z,4.3
2022-11-06T12:57:48.654Z,4.3
2022-11-06T12:58:56.996Z,4.3
2022-11-06T13:00:05.545Z,4.1
2022-11-06T13:01:14.016Z,4.1
2022-11-06T13:02:22.338Z,4.1
2022-11-06T13:03:30.863Z,4.4
2022-11-06T13:04:39.187Z,4.4
2022-11-06T13:05:47.527Z,4.4
2022-11-06T13:06:56.083Z,4.4
2022-11-06T13:08:04.472Z,4.4
2022-11-06T13:09:12.865Z,4.4
2022-11-06T13:10:21.419Z,8.7
2022-11-06T13:11:29.778Z,8.7
2022-11-06T13:12:38.185Z,8.7
2022-11-06T13:13:46.739Z,4.3
2022-11-06T13:14:55.084Z,4.3
2022-11-06T13:16:03.447Z,4.3
2022-11-06T13:17:12.008Z,4.9
2022-11-06T13:18:20.365Z,4.9
2022-11-06T13:19:28.740Z,4.9
2022-11-06T13:20:37.327Z,4
2022-11-06T13:21:45.703Z,4
2022-11-06T13:22:54.082Z,4
2022-11-06T13:24:02.659Z,6.5
2022-11-06T13:25:10.992Z,6.5
2022-11-06T13:26:19.348Z,6.5
2022-11-06T13:27:27.902Z,6.2
2022-11-06T13:28:36.232Z,6.2
2022-11-06T13:29:44.599Z,6.2
2022-11-06T13:30:53.161Z,7.5
2022-11-06T13:32:01.533Z,7.5
2022-11-06T13:33:09.889Z,7.5
2022-11-06T13:34:18.482Z,5.9
2022-11-06T13:35:26.864Z,5.9
2022-11-06T13:36:35.208Z,5.9
2022-11-06T13:37:43.774Z,5
2022-11-06T13:38:52.129Z,5
2022-11-06T13:40:00.477Z,5
2022-11-06T13:41:09.041Z,6.3
2022-11-06T13:42:17.389Z,6.3
2022-11-06T13:43:25.790Z,6.3
2022-11-06T13:44:34.350Z,6.1
2022-11-06T13:45:42.711Z,6.1
2022-11-06T13:46:51.061Z,6.1
2022-11-06T13:47:59.638Z,4.7
2022-11-06T13:49:08.006Z,4.7
2022-11-06T13:50:16.355Z,4.7
2022-11-06T13:51:24.963Z,5
2022-11-06T13:52:33.299Z,5
2022-11-06T13:53:41.656Z,5
2022-11-06T13:54:50.209Z,5.8
2022-11-06T13:55:58.683Z,5.8
2022-11-06T13:57:06.934Z,5.8
2022-11-06T13:58:15.935Z,5.6
2022-11-06T13:59:24.317Z,5.6
2022-11-06T14:00:32.183Z,5.6
2022-11-06T14:01:41.199Z,5.4
2022-11-06T14:02:49.658Z,5.4
2022-11-06T14:03:58.238Z,5.4
2022-11-06T14:05:06.889Z,5.5
2022-11-06T14:06:15.289Z,5.5
2022-11-06T14:07:23.711Z,5.5
2022-11-06T14:08:32.300Z,5.7
2022-11-06T14:09:40.840Z,5.7
2022-11-06T14:10:49.332Z,5.7
2022-11-06T14:11:57.969Z,5.6
2022-11-06T14:13:06.341Z,5.6
2022-11-06T14:14:14.746Z,5.6
2022-11-06T14:15:23.334Z,6.5
2022-11-06T14:16:31.853Z,6.5
2022-11-06T14:17:40.212Z,6.5
2022-11-06T14:18:48.825Z,6.8
2022-11-06T14:19:57.255Z,6.8
2022-11-06T14:21:05.632Z,6.8
2022-11-06T14:22:14.406Z,7
2022-11-06T14:23:23.071Z,7
2022-11-06T14:24:32.662Z,7
2022-11-06T14:25:42.600Z,7.4
2022-11-06T14:26:53.066Z,7.4
2022-11-06T14:28:03.879Z,7.4
2022-11-06T14:29:15.319Z,7.7
2022-11-06T15:03:25.703Z,0
2022-11-06T15:04:34.031Z,0
2022-11-06T15:05:42.892Z,0
2022-11-06T15:06:50.968Z,8.3
2022-11-06T15:08:04.784Z,8.3
2022-11-06T15:09:07.701Z,8.3
2022-11-06T15:10:16.263Z,7.9
2022-11-06T15:11:24.632Z,7.9
2022-11-06T15:12:32.986Z,7.9
2022-11-06T15:13:41.547Z,8.8
2022-11-06T15:14:50.262Z,8.8
2022-11-06T15:15:58.832Z,8.8
2022-11-06T15:17:07.396Z,9.2
2022-11-06T15:18:16.079Z,9.2
2022-11-06T15:19:24.116Z,9.2
2022-11-06T15:20:32.643Z,9.8
2022-11-06T15:21:41.001Z,9.8
2022-11-06T15:22:49.458Z,9.8
2022-11-06T15:23:58.005Z,9.2
2022-11-06T15:25:06.344Z,9.2
2022-11-06T15:26:14.695Z,9.2
2022-11-06T15:27:23.254Z,8.5
2022-11-06T15:28:31.918Z,8.5
2022-11-06T15:29:40.292Z,8.5
2022-11-06T15:30:48.838Z,8.6
2022-11-06T15:31:57.179Z,8.6
2022-11-06T15:33:05.523Z,8.6
2022-11-06T15:34:14.072Z,8.5
2022-11-06T15:35:22.516Z,8.5
2022-11-06T15:36:30.754Z,8.5
2022-11-06T15:37:39.342Z,8.8
2022-11-06T15:38:47.713Z,8.8
2022-11-06T15:40:00.487Z,8.8
2022-11-06T15:41:04.646Z,9.5
2022-11-06T15:42:13.378Z,9.5
2022-11-06T15:43:21.686Z,9.5
2022-11-06T15:44:30.249Z,10
2022-11-06T15:45:39.842Z,10
2022-11-06T15:46:49.265Z,10
2022-11-06T15:47:57.803Z,9.8
2022-11-06T15:49:06.478Z,9.8
2022-11-06T15:50:14.837Z,9.8
2022-11-06T15:51:23.509Z,9.8
2022-11-06T15:52:31.735Z,9.8
2022-11-06T15:53:41.114Z,9.8
2022-11-06T15:54:48.955Z,9.5
2022-11-06T15:55:56.989Z,9.5
2022-11-06T15:57:05.347Z,9.5
2022-11-06T15:58:14.316Z,9.1
2022-11-06T15:59:22.337Z,9.1
2022-11-06T16:00:30.684Z,9.1
2022-11-06T16:01:39.348Z,9.6
2022-11-06T16:02:47.613Z,9.6
2022-11-06T16:03:55.909Z,9.6
2022-11-06T16:05:04.473Z,9.2
2022-11-06T16:06:12.815Z,9.2